sensor_id;sensor_type;location;lat;lon;timestamp;P1;durP1;ratioP1;P2;durP2;ratioP2
26211;SDS011;13951;49.516;6.094;2024-01-11T00:01:25;19.27;;;9.43;;
26211;SDS011;13951;49.516;6.094;2024-01-11T00:03:58;22.87;;;10.60;;
26211;SDS011;13951;49.516;6.094;2024-01-11T00:06:31;22.70;;;10.17;;
26211;SDS011;13951;49.516;6.094;2024-01-11T00:09:04;20.23;;;10.23;;
26211;SDS011;13951;49.516;6.094;2024-01-11T00:11:37;26.77;;;10.40;;
26211;SDS011;13951;49.516;6.094;2024-01-11T00:14:11;22.17;;;10.07;;
26211;SDS011;13951;49.516;6.094;2024-01-11T00:16:44;17.97;;;9.63;;
26211;SDS011;13951;49.516;6.094;2024-01-11T00:19:17;21.27;;;10.00;;
26211;SDS011;13951;49.516;6.094;2024-01-11T00:21:50;22.53;;;10.77;;
26211;SDS011;13951;49.516;6.094;2024-01-11T00:24:23;22.93;;;10.53;;
26211;SDS011;13951;49.516;6.094;2024-01-11T00:26:56;24.10;;;11.23;;
26211;SDS011;13951;49.516;6.094;2024-01-11T00:29:29;25.30;;;11.43;;
26211;SDS011;13951;49.516;6.094;2024-01-11T00:32:03;21.37;;;10.20;;
26211;SDS011;13951;49.516;6.094;2024-01-11T00:34:36;22.50;;;10.00;;
26211;SDS011;13951;49.516;6.094;2024-01-11T00:37:09;22.40;;;9.90;;
26211;SDS011;13951;49.516;6.094;2024-01-11T00:39:42;17.83;;;9.23;;
26211;SDS011;13951;49.516;6.094;2024-01-11T00:42:16;23.73;;;9.90;;
26211;SDS011;13951;49.516;6.094;2024-01-11T00:44:50;21.77;;;10.23;;
26211;SDS011;13951;49.516;6.094;2024-01-11T00:47:23;25.40;;;10.03;;
26211;SDS011;13951;49.516;6.094;2024-01-11T00:49:56;19.50;;;10.23;;
26211;SDS011;13951;49.516;6.094;2024-01-11T00:52:31;22.40;;;9.83;;
26211;SDS011;13951;49.516;6.094;2024-01-11T00:55:04;23.67;;;9.97;;
26211;SDS011;13951;49.516;6.094;2024-01-11T00:57:38;18.90;;;9.90;;
26211;SDS011;13951;49.516;6.094;2024-01-11T01:00:11;20.33;;;10.00;;
26211;SDS011;13951;49.516;6.094;2024-01-11T01:02:48;20.50;;;9.77;;
26211;SDS011;13951;49.516;6.094;2024-01-11T01:05:21;20.70;;;9.87;;
26211;SDS011;13951;49.516;6.094;2024-01-11T01:07:54;20.13;;;9.83;;
26211;SDS011;13951;49.516;6.094;2024-01-11T01:10:27;19.77;;;9.73;;
26211;SDS011;13951;49.516;6.094;2024-01-11T01:13:00;18.67;;;10.03;;
26211;SDS011;13951;49.516;6.094;2024-01-11T01:15:33;22.50;;;10.27;;
26211;SDS011;13951;49.516;6.094;2024-01-11T01:18:06;24.00;;;9.60;;
26211;SDS011;13951;49.516;6.094;2024-01-11T01:20:40;25.60;;;10.53;;
26211;SDS011;13951;49.516;6.094;2024-01-11T01:23:16;25.17;;;10.60;;
26211;SDS011;13951;49.516;6.094;2024-01-11T01:25:50;24.30;;;10.77;;
26211;SDS011;13951;49.516;6.094;2024-01-11T01:28:23;24.77;;;10.90;;
26211;SDS011;13951;49.516;6.094;2024-01-11T01:30:56;24.30;;;11.10;;
26211;SDS011;13951;49.516;6.094;2024-01-11T01:33:30;24.30;;;10.53;;
26211;SDS011;13951;49.516;6.094;2024-01-11T01:36:03;21.57;;;10.40;;
26211;SDS011;13951;49.516;6.094;2024-01-11T01:38:40;24.27;;;10.83;;
26211;SDS011;13951;49.516;6.094;2024-01-11T01:41:13;20.77;;;9.77;;
26211;SDS011;13951;49.516;6.094;2024-01-11T01:43:46;22.00;;;10.53;;
26211;SDS011;13951;49.516;6.094;2024-01-11T01:46:22;21.77;;;10.07;;
26211;SDS011;13951;49.516;6.094;2024-01-11T01:48:56;22.13;;;10.37;;
26211;SDS011;13951;49.516;6.094;2024-01-11T01:51:30;19.40;;;10.13;;
26211;SDS011;13951;49.516;6.094;2024-01-11T01:54:04;24.07;;;10.40;;
26211;SDS011;13951;49.516;6.094;2024-01-11T01:56:38;21.63;;;10.47;;
26211;SDS011;13951;49.516;6.094;2024-01-11T01:59:12;28.30;;;11.77;;
26211;SDS011;13951;49.516;6.094;2024-01-11T02:01:46;23.33;;;10.27;;
26211;SDS011;13951;49.516;6.094;2024-01-11T02:04:20;21.87;;;10.90;;
26211;SDS011;13951;49.516;6.094;2024-01-11T02:06:53;25.63;;;11.00;;
26211;SDS011;13951;49.516;6.094;2024-01-11T02:09:28;23.97;;;9.93;;
26211;SDS011;13951;49.516;6.094;2024-01-11T02:12:03;24.53;;;10.77;;
26211;SDS011;13951;49.516;6.094;2024-01-11T02:14:37;24.20;;;11.23;;
26211;SDS011;13951;49.516;6.094;2024-01-11T02:17:11;22.00;;;10.17;;
26211;SDS011;13951;49.516;6.094;2024-01-11T02:19:44;20.63;;;10.50;;
26211;SDS011;13951;49.516;6.094;2024-01-11T02:22:21;23.80;;;10.03;;
26211;SDS011;13951;49.516;6.094;2024-01-11T02:24:57;21.93;;;10.50;;
26211;SDS011;13951;49.516;6.094;2024-01-11T02:27:30;18.33;;;10.63;;
26211;SDS011;13951;49.516;6.094;2024-01-11T02:30:03;26.20;;;11.67;;
26211;SDS011;13951;49.516;6.094;2024-01-11T02:32:37;24.20;;;10.97;;
26211;SDS011;13951;49.516;6.094;2024-01-11T02:35:12;23.70;;;11.20;;
26211;SDS011;13951;49.516;6.094;2024-01-11T02:37:46;23.47;;;10.37;;
26211;SDS011;13951;49.516;6.094;2024-01-11T02:40:19;24.83;;;10.93;;
26211;SDS011;13951;49.516;6.094;2024-01-11T02:42:53;22.50;;;11.20;;
26211;SDS011;13951;49.516;6.094;2024-01-11T02:45:26;22.70;;;10.30;;
26211;SDS011;13951;49.516;6.094;2024-01-11T02:47:59;24.20;;;11.30;;
26211;SDS011;13951;49.516;6.094;2024-01-11T02:50:32;20.30;;;9.80;;
26211;SDS011;13951;49.516;6.094;2024-01-11T02:53:06;19.37;;;9.77;;
26211;SDS011;13951;49.516;6.094;2024-01-11T02:55:39;20.03;;;10.03;;
26211;SDS011;13951;49.516;6.094;2024-01-11T02:58:14;22.00;;;10.47;;
26211;SDS011;13951;49.516;6.094;2024-01-11T03:00:47;25.20;;;11.30;;
26211;SDS011;13951;49.516;6.094;2024-01-11T03:03:21;22.77;;;11.27;;
26211;SDS011;13951;49.516;6.094;2024-01-11T03:05:54;24.10;;;10.80;;
26211;SDS011;13951;49.516;6.094;2024-01-11T03:08:27;22.43;;;10.50;;
26211;SDS011;13951;49.516;6.094;2024-01-11T03:11:01;25.47;;;10.80;;
26211;SDS011;13951;49.516;6.094;2024-01-11T03:13:34;22.77;;;10.30;;
26211;SDS011;13951;49.516;6.094;2024-01-11T03:16:07;22.77;;;10.30;;
26211;SDS011;13951;49.516;6.094;2024-01-11T03:18:40;20.70;;;10.37;;
26211;SDS011;13951;49.516;6.094;2024-01-11T03:21:13;22.20;;;10.30;;
26211;SDS011;13951;49.516;6.094;2024-01-11T03:23:47;21.23;;;9.47;;
26211;SDS011;13951;49.516;6.094;2024-01-11T03:26:20;23.20;;;9.90;;
26211;SDS011;13951;49.516;6.094;2024-01-11T03:28:53;18.90;;;9.93;;
26211;SDS011;13951;49.516;6.094;2024-01-11T03:31:27;23.00;;;10.57;;
26211;SDS011;13951;49.516;6.094;2024-01-11T03:34:00;20.33;;;9.60;;
26211;SDS011;13951;49.516;6.094;2024-01-11T03:36:33;17.87;;;9.87;;
26211;SDS011;13951;49.516;6.094;2024-01-11T03:39:07;19.17;;;9.73;;
26211;SDS011;13951;49.516;6.094;2024-01-11T03:41:43;21.60;;;10.00;;
26211;SDS011;13951;49.516;6.094;2024-01-11T03:44:17;27.60;;;10.90;;
26211;SDS011;13951;49.516;6.094;2024-01-11T03:46:50;20.73;;;9.93;;
26211;SDS011;13951;49.516;6.094;2024-01-11T03:49:24;22.77;;;10.93;;
26211;SDS011;13951;49.516;6.094;2024-01-11T03:51:57;22.70;;;9.87;;
26211;SDS011;13951;49.516;6.094;2024-01-11T03:54:30;23.80;;;10.17;;
26211;SDS011;13951;49.516;6.094;2024-01-11T03:57:03;20.23;;;9.53;;
26211;SDS011;13951;49.516;6.094;2024-01-11T03:59:37;19.77;;;9.50;;
26211;SDS011;13951;49.516;6.094;2024-01-11T04:02:11;19.60;;;9.50;;
26211;SDS011;13951;49.516;6.094;2024-01-11T04:04:44;20.73;;;9.67;;
26211;SDS011;13951;49.516;6.094;2024-01-11T04:07:17;18.77;;;9.63;;
26211;SDS011;13951;49.516;6.094;2024-01-11T04:09:50;22.83;;;10.03;;
26211;SDS011;13951;49.516;6.094;2024-01-11T04:12:23;23.93;;;9.90;;
26211;SDS011;13951;49.516;6.094;2024-01-11T04:14:57;19.03;;;9.33;;
26211;SDS011;13951;49.516;6.094;2024-01-11T04:17:30;23.83;;;9.33;;
26211;SDS011;13951;49.516;6.094;2024-01-11T04:20:04;22.50;;;10.90;;
26211;SDS011;13951;49.516;6.094;2024-01-11T04:22:38;24.77;;;10.87;;
26211;SDS011;13951;49.516;6.094;2024-01-11T04:25:11;23.73;;;9.43;;
26211;SDS011;13951;49.516;6.094;2024-01-11T04:27:44;20.97;;;10.40;;
26211;SDS011;13951;49.516;6.094;2024-01-11T04:30:17;21.43;;;9.47;;
26211;SDS011;13951;49.516;6.094;2024-01-11T04:32:51;19.50;;;9.97;;
26211;SDS011;13951;49.516;6.094;2024-01-11T04:35:24;20.83;;;10.07;;
26211;SDS011;13951;49.516;6.094;2024-01-11T04:37:57;21.43;;;9.47;;
26211;SDS011;13951;49.516;6.094;2024-01-11T04:40:31;23.17;;;9.60;;
26211;SDS011;13951;49.516;6.094;2024-01-11T04:43:04;20.83;;;9.07;;
26211;SDS011;13951;49.516;6.094;2024-01-11T04:45:37;21.07;;;9.83;;
26211;SDS011;13951;49.516;6.094;2024-01-11T04:48:13;17.73;;;8.53;;
26211;SDS011;13951;49.516;6.094;2024-01-11T04:50:46;23.50;;;10.07;;
26211;SDS011;13951;49.516;6.094;2024-01-11T04:53:19;18.70;;;9.03;;
26211;SDS011;13951;49.516;6.094;2024-01-11T04:55:53;22.80;;;9.17;;
26211;SDS011;13951;49.516;6.094;2024-01-11T04:58:26;19.17;;;9.43;;
26211;SDS011;13951;49.516;6.094;2024-01-11T05:00:59;22.63;;;11.20;;
26211;SDS011;13951;49.516;6.094;2024-01-11T05:03:33;16.37;;;8.97;;
26211;SDS011;13951;49.516;6.094;2024-01-11T05:06:06;21.47;;;9.73;;
26211;SDS011;13951;49.516;6.094;2024-01-11T05:08:40;22.63;;;10.13;;
26211;SDS011;13951;49.516;6.094;2024-01-11T05:13:52;16.73;;;9.50;;
26211;SDS011;13951;49.516;6.094;2024-01-11T05:16:26;21.87;;;9.70;;
26211;SDS011;13951;49.516;6.094;2024-01-11T05:19:00;20.80;;;9.37;;
26211;SDS011;13951;49.516;6.094;2024-01-11T05:21:33;24.00;;;10.13;;
26211;SDS011;13951;49.516;6.094;2024-01-11T05:24:06;18.70;;;9.27;;
26211;SDS011;13951;49.516;6.094;2024-01-11T05:26:43;20.37;;;9.53;;
26211;SDS011;13951;49.516;6.094;2024-01-11T05:29:16;21.50;;;9.90;;
26211;SDS011;13951;49.516;6.094;2024-01-11T05:31:50;24.03;;;9.63;;
26211;SDS011;13951;49.516;6.094;2024-01-11T05:34:23;21.03;;;9.57;;
26211;SDS011;13951;49.516;6.094;2024-01-11T05:36:57;20.53;;;9.57;;
26211;SDS011;13951;49.516;6.094;2024-01-11T05:39:32;28.67;;;14.63;;
26211;SDS011;13951;49.516;6.094;2024-01-11T05:42:05;27.15;;;14.40;;
26211;SDS011;13951;49.516;6.094;2024-01-11T05:44:39;25.60;;;12.03;;
26211;SDS011;13951;49.516;6.094;2024-01-11T05:47:13;23.00;;;11.07;;
26211;SDS011;13951;49.516;6.094;2024-01-11T05:49:46;25.60;;;10.30;;
26211;SDS011;13951;49.516;6.094;2024-01-11T05:52:20;24.47;;;9.93;;
26211;SDS011;13951;49.516;6.094;2024-01-11T05:54:53;16.53;;;8.70;;
26211;SDS011;13951;49.516;6.094;2024-01-11T05:57:27;20.40;;;9.67;;
26211;SDS011;13951;49.516;6.094;2024-01-11T06:00:00;22.37;;;9.87;;
26211;SDS011;13951;49.516;6.094;2024-01-11T06:02:37;22.50;;;10.27;;
26211;SDS011;13951;49.516;6.094;2024-01-11T06:05:10;22.20;;;10.27;;
26211;SDS011;13951;49.516;6.094;2024-01-11T06:07:47;20.30;;;10.13;;
26211;SDS011;13951;49.516;6.094;2024-01-11T06:10:21;19.03;;;9.47;;
26211;SDS011;13951;49.516;6.094;2024-01-11T06:12:54;18.50;;;9.47;;
26211;SDS011;13951;49.516;6.094;2024-01-11T06:15:29;18.67;;;10.10;;
26211;SDS011;13951;49.516;6.094;2024-01-11T06:18:02;20.77;;;8.97;;
26211;SDS011;13951;49.516;6.094;2024-01-11T06:20:37;21.20;;;9.60;;
26211;SDS011;13951;49.516;6.094;2024-01-11T06:23:11;22.13;;;10.00;;
26211;SDS011;13951;49.516;6.094;2024-01-11T06:25:44;18.97;;;9.83;;
26211;SDS011;13951;49.516;6.094;2024-01-11T06:28:18;23.23;;;10.30;;
26211;SDS011;13951;49.516;6.094;2024-01-11T06:30:52;21.97;;;9.90;;
26211;SDS011;13951;49.516;6.094;2024-01-11T06:33:26;20.87;;;9.93;;
26211;SDS011;13951;49.516;6.094;2024-01-11T06:36:00;24.27;;;10.13;;
26211;SDS011;13951;49.516;6.094;2024-01-11T06:38:34;20.80;;;9.83;;
26211;SDS011;13951;49.516;6.094;2024-01-11T06:41:07;22.97;;;10.63;;
26211;SDS011;13951;49.516;6.094;2024-01-11T06:43:41;18.00;;;9.40;;
26211;SDS011;13951;49.516;6.094;2024-01-11T06:46:18;21.93;;;10.40;;
26211;SDS011;13951;49.516;6.094;2024-01-11T06:48:52;26.80;;;10.90;;
26211;SDS011;13951;49.516;6.094;2024-01-11T06:51:26;22.30;;;10.33;;
26211;SDS011;13951;49.516;6.094;2024-01-11T06:53:59;20.87;;;10.40;;
26211;SDS011;13951;49.516;6.094;2024-01-11T06:56:33;24.97;;;10.80;;
26211;SDS011;13951;49.516;6.094;2024-01-11T06:59:08;22.70;;;10.27;;
26211;SDS011;13951;49.516;6.094;2024-01-11T07:01:41;22.17;;;11.97;;
26211;SDS011;13951;49.516;6.094;2024-01-11T07:04:15;23.40;;;10.50;;
26211;SDS011;13951;49.516;6.094;2024-01-11T07:06:48;22.53;;;10.17;;
26211;SDS011;13951;49.516;6.094;2024-01-11T07:09:22;27.80;;;12.03;;
26211;SDS011;13951;49.516;6.094;2024-01-11T07:11:58;26.60;;;11.17;;
26211;SDS011;13951;49.516;6.094;2024-01-11T07:14:31;23.63;;;11.17;;
26211;SDS011;13951;49.516;6.094;2024-01-11T07:17:05;26.67;;;11.53;;
26211;SDS011;13951;49.516;6.094;2024-01-11T07:19:38;23.20;;;10.63;;
26211;SDS011;13951;49.516;6.094;2024-01-11T07:22:12;22.63;;;10.30;;
26211;SDS011;13951;49.516;6.094;2024-01-11T07:24:45;24.47;;;10.80;;
26211;SDS011;13951;49.516;6.094;2024-01-11T07:27:19;24.93;;;10.20;;
26211;SDS011;13951;49.516;6.094;2024-01-11T07:29:52;22.17;;;10.87;;
26211;SDS011;13951;49.516;6.094;2024-01-11T07:32:26;19.70;;;10.23;;
26211;SDS011;13951;49.516;6.094;2024-01-11T07:35:01;25.23;;;10.07;;
26211;SDS011;13951;49.516;6.094;2024-01-11T07:37:38;22.30;;;10.43;;
26211;SDS011;13951;49.516;6.094;2024-01-11T07:40:11;24.20;;;10.60;;
26211;SDS011;13951;49.516;6.094;2024-01-11T07:42:46;21.73;;;9.73;;
26211;SDS011;13951;49.516;6.094;2024-01-11T07:45:19;23.43;;;10.60;;
26211;SDS011;13951;49.516;6.094;2024-01-11T07:47:53;21.20;;;10.27;;
26211;SDS011;13951;49.516;6.094;2024-01-11T07:50:26;25.47;;;11.50;;
26211;SDS011;13951;49.516;6.094;2024-01-11T07:53:00;20.20;;;9.50;;
26211;SDS011;13951;49.516;6.094;2024-01-11T07:55:33;25.80;;;10.73;;
26211;SDS011;13951;49.516;6.094;2024-01-11T07:58:07;22.10;;;10.47;;
26211;SDS011;13951;49.516;6.094;2024-01-11T08:00:41;23.07;;;10.73;;
26211;SDS011;13951;49.516;6.094;2024-01-11T08:03:14;21.20;;;10.90;;
26211;SDS011;13951;49.516;6.094;2024-01-11T08:05:48;19.73;;;10.93;;
26211;SDS011;13951;49.516;6.094;2024-01-11T08:08:22;23.50;;;12.30;;
26211;SDS011;13951;49.516;6.094;2024-01-11T08:10:56;25.10;;;11.50;;
26211;SDS011;13951;49.516;6.094;2024-01-11T08:13:30;23.03;;;11.83;;
26211;SDS011;13951;49.516;6.094;2024-01-11T08:16:05;22.93;;;12.33;;
26211;SDS011;13951;49.516;6.094;2024-01-11T08:18:42;23.77;;;11.93;;
26211;SDS011;13951;49.516;6.094;2024-01-11T08:21:16;27.13;;;12.87;;
26211;SDS011;13951;49.516;6.094;2024-01-11T08:23:49;26.37;;;12.53;;
26211;SDS011;13951;49.516;6.094;2024-01-11T08:26:23;25.13;;;11.80;;
26211;SDS011;13951;49.516;6.094;2024-01-11T08:28:56;26.17;;;11.80;;
26211;SDS011;13951;49.516;6.094;2024-01-11T08:31:30;25.50;;;11.10;;
26211;SDS011;13951;49.516;6.094;2024-01-11T08:34:03;26.60;;;11.83;;
26211;SDS011;13951;49.516;6.094;2024-01-11T08:36:38;25.93;;;11.73;;
26211;SDS011;13951;49.516;6.094;2024-01-11T08:39:11;25.90;;;11.63;;
26211;SDS011;13951;49.516;6.094;2024-01-11T08:41:45;23.60;;;11.13;;
26211;SDS011;13951;49.516;6.094;2024-01-11T08:44:18;26.20;;;11.47;;
26211;SDS011;13951;49.516;6.094;2024-01-11T08:46:52;21.70;;;10.43;;
26211;SDS011;13951;49.516;6.094;2024-01-11T08:49:26;24.60;;;12.23;;
26211;SDS011;13951;49.516;6.094;2024-01-11T08:51:59;22.53;;;10.83;;
26211;SDS011;13951;49.516;6.094;2024-01-11T08:54:35;25.47;;;11.00;;
26211;SDS011;13951;49.516;6.094;2024-01-11T08:57:08;26.30;;;11.43;;
26211;SDS011;13951;49.516;6.094;2024-01-11T08:59:41;27.23;;;11.50;;
26211;SDS011;13951;49.516;6.094;2024-01-11T09:02:15;23.10;;;10.93;;
26211;SDS011;13951;49.516;6.094;2024-01-11T09:04:53;22.20;;;10.57;;
26211;SDS011;13951;49.516;6.094;2024-01-11T09:07:26;20.23;;;10.70;;
26211;SDS011;13951;49.516;6.094;2024-01-11T09:09:59;22.70;;;10.97;;
26211;SDS011;13951;49.516;6.094;2024-01-11T09:12:33;23.47;;;10.77;;
26211;SDS011;13951;49.516;6.094;2024-01-11T09:15:06;22.20;;;10.80;;
26211;SDS011;13951;49.516;6.094;2024-01-11T09:17:40;21.50;;;10.77;;
26211;SDS011;13951;49.516;6.094;2024-01-11T09:20:13;25.00;;;11.17;;
26211;SDS011;13951;49.516;6.094;2024-01-11T09:22:47;22.07;;;10.97;;
26211;SDS011;13951;49.516;6.094;2024-01-11T09:25:21;20.57;;;10.70;;
26211;SDS011;13951;49.516;6.094;2024-01-11T09:27:56;22.47;;;11.40;;
26211;SDS011;13951;49.516;6.094;2024-01-11T09:30:29;19.90;;;10.07;;
26211;SDS011;13951;49.516;6.094;2024-01-11T09:33:03;20.27;;;10.20;;
26211;SDS011;13951;49.516;6.094;2024-01-11T09:35:37;24.00;;;11.27;;
26211;SDS011;13951;49.516;6.094;2024-01-11T09:38:10;21.47;;;10.07;;
26211;SDS011;13951;49.516;6.094;2024-01-11T09:40:44;18.77;;;9.53;;
26211;SDS011;13951;49.516;6.094;2024-01-11T09:43:18;20.73;;;10.40;;
26211;SDS011;13951;49.516;6.094;2024-01-11T09:45:51;19.33;;;9.60;;
26211;SDS011;13951;49.516;6.094;2024-01-11T09:48:25;20.63;;;10.07;;
26211;SDS011;13951;49.516;6.094;2024-01-11T09:50:58;17.63;;;9.03;;
26211;SDS011;13951;49.516;6.094;2024-01-11T09:53:32;14.27;;;6.73;;
26211;SDS011;13951;49.516;6.094;2024-01-11T09:56:07;19.67;;;10.17;;
26211;SDS011;13951;49.516;6.094;2024-01-11T09:58:42;21.87;;;10.87;;
26211;SDS011;13951;49.516;6.094;2024-01-11T10:01:17;22.43;;;9.53;;
26211;SDS011;13951;49.516;6.094;2024-01-11T10:03:51;20.47;;;10.60;;
26211;SDS011;13951;49.516;6.094;2024-01-11T10:06:25;20.70;;;9.87;;
26211;SDS011;13951;49.516;6.094;2024-01-11T10:08:59;19.67;;;9.93;;
26211;SDS011;13951;49.516;6.094;2024-01-11T10:11:32;17.80;;;9.97;;
26211;SDS011;13951;49.516;6.094;2024-01-11T10:14:07;19.03;;;9.83;;
26211;SDS011;13951;49.516;6.094;2024-01-11T10:16:43;21.03;;;10.40;;
26211;SDS011;13951;49.516;6.094;2024-01-11T10:19:17;19.97;;;10.47;;
26211;SDS011;13951;49.516;6.094;2024-01-11T10:21:54;21.67;;;10.07;;
26211;SDS011;13951;49.516;6.094;2024-01-11T10:24:27;22.43;;;9.70;;
26211;SDS011;13951;49.516;6.094;2024-01-11T10:27:01;20.47;;;10.30;;
26211;SDS011;13951;49.516;6.094;2024-01-11T10:29:36;18.90;;;9.37;;
26211;SDS011;13951;49.516;6.094;2024-01-11T10:32:10;19.43;;;11.00;;
26211;SDS011;13951;49.516;6.094;2024-01-11T10:34:43;21.17;;;10.40;;
26211;SDS011;13951;49.516;6.094;2024-01-11T10:37:17;18.73;;;9.10;;
26211;SDS011;13951;49.516;6.094;2024-01-11T10:39:51;16.53;;;9.50;;
26211;SDS011;13951;49.516;6.094;2024-01-11T10:42:25;18.70;;;9.73;;
26211;SDS011;13951;49.516;6.094;2024-01-11T10:45:01;17.47;;;9.23;;
26211;SDS011;13951;49.516;6.094;2024-01-11T10:47:36;19.27;;;9.17;;
26211;SDS011;13951;49.516;6.094;2024-01-11T10:50:10;19.60;;;9.47;;
26211;SDS011;13951;49.516;6.094;2024-01-11T10:55:40;23.27;;;12.80;;
26211;SDS011;13951;49.516;6.094;2024-01-11T10:58:14;23.53;;;11.17;;
26211;SDS011;13951;49.516;6.094;2024-01-11T11:00:49;19.80;;;9.93;;
26211;SDS011;13951;49.516;6.094;2024-01-11T11:03:24;18.60;;;9.67;;
26211;SDS011;13951;49.516;6.094;2024-01-11T11:06:00;17.80;;;9.73;;
26211;SDS011;13951;49.516;6.094;2024-01-11T11:08:34;18.37;;;9.53;;
26211;SDS011;13951;49.516;6.094;2024-01-11T11:11:09;18.47;;;9.10;;
26211;SDS011;13951;49.516;6.094;2024-01-11T11:13:46;21.83;;;9.33;;
26211;SDS011;13951;49.516;6.094;2024-01-11T11:16:21;19.77;;;9.50;;
26211;SDS011;13951;49.516;6.094;2024-01-11T11:18:56;18.97;;;9.73;;
26211;SDS011;13951;49.516;6.094;2024-01-11T11:21:30;19.20;;;9.60;;
26211;SDS011;13951;49.516;6.094;2024-01-11T11:24:03;19.47;;;9.23;;
26211;SDS011;13951;49.516;6.094;2024-01-11T11:26:37;20.27;;;8.80;;
26211;SDS011;13951;49.516;6.094;2024-01-11T11:29:10;20.10;;;10.00;;
26211;SDS011;13951;49.516;6.094;2024-01-11T11:31:45;24.33;;;14.10;;
26211;SDS011;13951;49.516;6.094;2024-01-11T11:34:41;18.27;;;9.53;;
26211;SDS011;13951;49.516;6.094;2024-01-11T11:37:23;17.97;;;9.50;;
26211;SDS011;13951;49.516;6.094;2024-01-11T11:39:57;19.83;;;9.50;;
26211;SDS011;13951;49.516;6.094;2024-01-11T11:42:34;22.80;;;10.63;;
26211;SDS011;13951;49.516;6.094;2024-01-11T11:45:09;16.87;;;8.70;;
26211;SDS011;13951;49.516;6.094;2024-01-11T11:47:45;16.43;;;8.97;;
26211;SDS011;13951;49.516;6.094;2024-01-11T11:50:21;21.43;;;9.17;;
26211;SDS011;13951;49.516;6.094;2024-01-11T11:52:56;18.07;;;9.70;;
26211;SDS011;13951;49.516;6.094;2024-01-11T11:55:30;17.90;;;9.40;;
26211;SDS011;13951;49.516;6.094;2024-01-11T11:58:03;16.90;;;8.87;;
26211;SDS011;13951;49.516;6.094;2024-01-11T12:00:37;19.23;;;10.57;;
26211;SDS011;13951;49.516;6.094;2024-01-11T12:03:10;18.73;;;10.40;;
26211;SDS011;13951;49.516;6.094;2024-01-11T12:05:44;17.77;;;9.13;;
26211;SDS011;13951;49.516;6.094;2024-01-11T12:08:17;18.07;;;9.30;;
26211;SDS011;13951;49.516;6.094;2024-01-11T12:10:51;16.30;;;9.60;;
26211;SDS011;13951;49.516;6.094;2024-01-11T12:13:25;15.60;;;8.20;;
26211;SDS011;13951;49.516;6.094;2024-01-11T12:15:59;18.30;;;9.00;;
26211;SDS011;13951;49.516;6.094;2024-01-11T12:18:32;19.87;;;9.53;;
26211;SDS011;13951;49.516;6.094;2024-01-11T12:21:06;17.07;;;9.40;;
26211;SDS011;13951;49.516;6.094;2024-01-11T12:23:40;15.57;;;7.87;;
26211;SDS011;13951;49.516;6.094;2024-01-11T12:26:15;19.63;;;9.07;;
26211;SDS011;13951;49.516;6.094;2024-01-11T12:28:48;18.50;;;8.80;;
26211;SDS011;13951;49.516;6.094;2024-01-11T12:31:22;21.23;;;10.13;;
26211;SDS011;13951;49.516;6.094;2024-01-11T12:33:56;22.47;;;10.33;;
26211;SDS011;13951;49.516;6.094;2024-01-11T12:36:30;20.07;;;9.63;;
26211;SDS011;13951;49.516;6.094;2024-01-11T12:39:05;16.43;;;8.67;;
26211;SDS011;13951;49.516;6.094;2024-01-11T12:41:39;19.50;;;9.80;;
26211;SDS011;13951;49.516;6.094;2024-01-11T12:44:12;15.23;;;8.60;;
26211;SDS011;13951;49.516;6.094;2024-01-11T12:46:50;12.50;;;6.87;;
26211;SDS011;13951;49.516;6.094;2024-01-11T12:49:24;16.83;;;8.60;;
26211;SDS011;13951;49.516;6.094;2024-01-11T12:51:58;18.63;;;9.23;;
26211;SDS011;13951;49.516;6.094;2024-01-11T12:54:32;14.23;;;7.60;;
26211;SDS011;13951;49.516;6.094;2024-01-11T12:57:06;18.37;;;9.00;;
26211;SDS011;13951;49.516;6.094;2024-01-11T12:59:39;16.93;;;8.93;;
26211;SDS011;13951;49.516;6.094;2024-01-11T13:02:13;12.63;;;7.30;;
26211;SDS011;13951;49.516;6.094;2024-01-11T13:04:50;15.37;;;8.43;;
26211;SDS011;13951;49.516;6.094;2024-01-11T13:07:23;16.87;;;8.83;;
26211;SDS011;13951;49.516;6.094;2024-01-11T13:09:56;15.00;;;8.67;;
26211;SDS011;13951;49.516;6.094;2024-01-11T13:12:30;14.83;;;8.50;;
26211;SDS011;13951;49.516;6.094;2024-01-11T13:15:03;17.27;;;8.77;;
26211;SDS011;13951;49.516;6.094;2024-01-11T13:17:37;15.40;;;8.27;;
26211;SDS011;13951;49.516;6.094;2024-01-11T13:20:11;14.37;;;8.47;;
26211;SDS011;13951;49.516;6.094;2024-01-11T13:22:45;15.87;;;8.27;;
26211;SDS011;13951;49.516;6.094;2024-01-11T13:25:18;14.53;;;8.07;;
26211;SDS011;13951;49.516;6.094;2024-01-11T13:27:52;15.50;;;8.27;;
26211;SDS011;13951;49.516;6.094;2024-01-11T13:30:28;14.80;;;8.20;;
26211;SDS011;13951;49.516;6.094;2024-01-11T13:33:02;13.67;;;8.33;;
26211;SDS011;13951;49.516;6.094;2024-01-11T13:35:36;13.13;;;8.43;;
26211;SDS011;13951;49.516;6.094;2024-01-11T13:38:12;14.83;;;8.10;;
26211;SDS011;13951;49.516;6.094;2024-01-11T13:40:45;11.60;;;7.70;;
26211;SDS011;13951;49.516;6.094;2024-01-11T13:43:18;13.20;;;7.20;;
26211;SDS011;13951;49.516;6.094;2024-01-11T13:45:51;13.20;;;7.43;;
26211;SDS011;13951;49.516;6.094;2024-01-11T13:48:27;12.13;;;6.40;;
26211;SDS011;13951;49.516;6.094;2024-01-11T13:51:00;13.27;;;7.30;;
26211;SDS011;13951;49.516;6.094;2024-01-11T13:53:36;14.70;;;6.83;;
26211;SDS011;13951;49.516;6.094;2024-01-11T13:56:09;13.57;;;7.97;;
26211;SDS011;13951;49.516;6.094;2024-01-11T13:58:43;13.40;;;6.77;;
26211;SDS011;13951;49.516;6.094;2024-01-11T14:01:17;13.20;;;6.53;;
26211;SDS011;13951;49.516;6.094;2024-01-11T14:03:50;11.63;;;6.13;;
26211;SDS011;13951;49.516;6.094;2024-01-11T14:06:23;12.57;;;6.77;;
26211;SDS011;13951;49.516;6.094;2024-01-11T14:08:57;10.67;;;6.60;;
26211;SDS011;13951;49.516;6.094;2024-01-11T14:11:30;14.03;;;7.10;;
26211;SDS011;13951;49.516;6.094;2024-01-11T14:14:03;12.37;;;6.20;;
26211;SDS011;13951;49.516;6.094;2024-01-11T14:16:36;12.47;;;5.90;;
26211;SDS011;13951;49.516;6.094;2024-01-11T14:19:09;13.10;;;6.33;;
26211;SDS011;13951;49.516;6.094;2024-01-11T14:21:43;13.97;;;7.40;;
26211;SDS011;13951;49.516;6.094;2024-01-11T14:24:16;11.63;;;5.90;;
26211;SDS011;13951;49.516;6.094;2024-01-11T14:27:01;11.90;;;6.37;;
26211;SDS011;13951;49.516;6.094;2024-01-11T14:29:34;10.23;;;5.47;;
26211;SDS011;13951;49.516;6.094;2024-01-11T14:32:07;10.67;;;6.43;;
26211;SDS011;13951;49.516;6.094;2024-01-11T14:34:43;11.70;;;6.43;;
26211;SDS011;13951;49.516;6.094;2024-01-11T14:37:18;11.93;;;6.33;;
26211;SDS011;13951;49.516;6.094;2024-01-11T14:39:52;10.97;;;5.97;;
26211;SDS011;13951;49.516;6.094;2024-01-11T14:42:25;9.90;;;6.10;;
26211;SDS011;13951;49.516;6.094;2024-01-11T14:45:00;10.77;;;5.70;;
26211;SDS011;13951;49.516;6.094;2024-01-11T14:47:33;9.30;;;5.33;;
26211;SDS011;13951;49.516;6.094;2024-01-11T14:50:08;10.07;;;5.80;;
26211;SDS011;13951;49.516;6.094;2024-01-11T14:52:44;10.47;;;5.83;;
26211;SDS011;13951;49.516;6.094;2024-01-11T14:55:17;11.17;;;5.83;;
26211;SDS011;13951;49.516;6.094;2024-01-11T14:57:50;13.90;;;7.97;;
26211;SDS011;13951;49.516;6.094;2024-01-11T15:00:27;10.07;;;6.23;;
26211;SDS011;13951;49.516;6.094;2024-01-11T15:03:00;10.40;;;6.20;;
26211;SDS011;13951;49.516;6.094;2024-01-11T15:05:33;9.60;;;5.60;;
26211;SDS011;13951;49.516;6.094;2024-01-11T15:08:09;9.00;;;5.70;;
26211;SDS011;13951;49.516;6.094;2024-01-11T15:10:42;9.27;;;5.47;;
26211;SDS011;13951;49.516;6.094;2024-01-11T15:13:15;13.30;;;6.17;;